Time;durP1;ratioP1;P1;durP2;ratioP2;P2;SDS_P1;SDS_P2;PMS_P1;PMS_P2;Temp;Humidity;BMP_temperature;BMP_pressure;BME280_temperature;BME280_humidity;BME280_pressure;Samples;Min_cycle;Max_cycle;Signal;HPM_P1;HPM_P2
2022/11/03 00:00:59;;;;;;;;;;;;;;;6.33;95.17;99615.59;10379328;22;19923;-81
2022/11/03 00:06:03;;;;;;;;;;;;;;;6.28;94.83;99606.94;10410354;22;19919;-80
2022/11/03 00:09:22;;;;;;;;;;;;;;;6.26;95.29;99592.25;10399060;22;19958;-82
2022/11/03 00:13:24;;;;;;;;;;;;;;;6.23;95.46;99592.22;10373645;22;19942;-81
2022/11/03 00:17:25;;;;;;;;;;;;;;;6.26;96.07;99590.53;10385165;22;19930;-81
2022/11/03 00:21:27;;;;;;;;;;;;;;;6.30;96.14;99594.06;10396368;22;19959;-82
2022/11/03 00:25:28;;;;;;;;;;;;;;;6.30;96.51;99588.91;10373782;22;19923;-80
2022/11/03 00:29:30;;;;;;;;;;;;;;;6.30;96.23;99587.19;10414390;22;19931;-82
2022/11/03 00:33:31;;;;;;;;;;;;;;;6.28;96.10;99586.31;10349861;22;19972;-80
2022/11/03 00:37:33;;;;;;;;;;;;;;;6.28;96.11;99586.31;10362171;22;19923;-79
2022/11/03 00:41:35;;;;;;;;;;;;;;;6.26;95.99;99580.22;10363946;22;19927;-81
2022/11/03 00:45:36;;;;;;;;;;;;;;;6.29;96.60;99571.69;10352104;22;19953;-80
2022/11/03 00:49:37;;;;;;;;;;;;;;;6.32;96.17;99574.31;10383520;22;19923;-80
2022/11/03 00:53:39;;;;;;;;;;;;;;;6.27;95.82;99570.78;10332057;22;19923;-80
2022/11/03 00:57:40;;;;;;;;;;;;;;;6.27;96.10;99570.78;10388454;22;19970;-80
2022/11/03 01:01:43;;;;;;;;;;;;;;;6.28;95.97;99564.78;10353496;22;20006;-80
2022/11/03 01:10:10;;;;;;;;;;;;;;;6.17;95.73;99551.75;10383440;22;19934;-81
2022/11/03 01:14:13;;;;;;;;;;;;;;;6.16;95.01;99549.13;10363174;22;19930;-81
2022/11/03 01:18:15;;;;;;;;;;;;;;;6.12;95.08;99543.06;10328175;22;19981;-80
2022/11/03 01:22:16;;;;;;;;;;;;;;;6.10;95.21;99539.56;10358201;22;20329;-79
2022/11/03 01:26:18;;;;;;;;;;;;;;;6.08;95.31;99533.53;10358247;22;19951;-79
2022/11/03 01:30:19;;;;;;;;;;;;;;;6.08;95.66;99523.22;10379164;22;19976;-80
2022/11/03 01:34:21;;;;;;;;;;;;;;;6.10;95.65;99512.94;10337157;22;19923;-80
2022/11/03 01:38:24;;;;;;;;;;;;;;;6.13;96.02;99508.72;10335442;22;19923;-80
2022/11/03 01:42:25;;;;;;;;;;;;;;;6.12;95.94;99495.81;10360287;22;20279;-80
2022/11/03 01:46:27;;;;;;;;;;;;;;;6.09;96.37;99494.03;10353490;22;19934;-79
2022/11/03 01:50:30;;;;;;;;;;;;;;;6.09;96.50;99481.13;10359156;22;20385;-79
2022/11/03 01:54:33;;;;;;;;;;;;;;;6.12;96.49;99470.91;10360091;22;19962;-81
2022/11/03 01:58:37;;;;;;;;;;;;;;;6.15;96.63;99467.50;10335781;22;20084;-79
2022/11/03 02:02:44;;;;;;;;;;;;;;;6.19;96.67;99471.84;10353164;22;19942;-80
2022/11/03 02:06:53;;;;;;;;;;;;;;;6.20;96.98;99468.41;10386796;22;19919;-79
2022/11/03 02:10:55;;;;;;;;;;;;;;;6.24;96.96;99459.88;10360191;22;20586;-79
2022/11/03 02:15:00;;;;;;;;;;;;;;;6.27;96.83;99454.75;10360813;22;19994;-80
2022/11/03 02:19:03;;;;;;;;;;;;;;;6.30;96.94;99458.28;10381157;22;19919;-79
2022/11/03 02:23:23;;;;;;;;;;;;;;;6.36;96.72;99445.44;10386218;22;19931;-79
2022/11/03 02:27:25;;;;;;;;;;;;;;;6.40;96.61;99433.44;10359034;22;20318;-79
2022/11/03 02:31:26;;;;;;;;;;;;;;;6.40;96.74;99417.13;10351910;22;19919;-80
2022/11/03 02:35:32;;;;;;;;;;;;;;;6.33;96.55;99416.19;10358475;22;19936;-80
2022/11/03 02:39:35;;;;;;;;;;;;;;;6.34;96.76;99415.34;10333688;22;19980;-79
2022/11/03 02:43:38;;;;;;;;;;;;;;;6.35;96.83;99404.16;10333226;22;19938;-79
2022/11/03 02:47:39;;;;;;;;;;;;;;;6.34;96.46;99397.28;10355960;22;19923;-79
2022/11/03 02:51:40;;;;;;;;;;;;;;;6.32;96.41;99401.56;10358377;22;19950;-79
2022/11/03 02:55:49;;;;;;;;;;;;;;;6.31;96.42;99387.81;10358284;22;20265;-79
2022/11/03 02:59:55;;;;;;;;;;;;;;;6.28;96.43;99374.88;10358834;22;19924;-80
2022/11/03 03:03:58;;;;;;;;;;;;;;;6.24;96.61;99372.22;10329476;22;19942;-79
2022/11/03 03:08:02;;;;;;;;;;;;;;;6.22;96.47;99376.50;10337685;22;19923;-79
2022/11/03 03:12:05;;;;;;;;;;;;;;;6.25;97.09;99368.78;10387032;22;20287;-79
2022/11/03 03:16:17;;;;;;;;;;;;;;;6.28;96.76;99364.56;10382797;22;19998;-79
2022/11/03 03:20:22;;;;;;;;;;;;;;;6.28;96.71;99354.25;10337449;22;20340;-79
2022/11/03 03:24:27;;;;;;;;;;;;;;;6.17;96.55;99354.94;10390854;22;20302;-79
2022/11/03 03:28:52;;;;;;;;;;;;;;;6.17;96.63;99352.38;10363087;22;19966;-80
2022/11/03 03:32:55;;;;;;;;;;;;;;;6.16;96.76;99356.66;10339704;22;19923;-79
2022/11/03 03:36:58;;;;;;;;;;;;;;;6.14;96.34;99347.19;10337185;23;19955;-79
2022/11/03 03:41:01;;;;;;;;;;;;;;;6.17;96.23;99337.78;10336987;22;19920;-79
2022/11/03 03:45:09;;;;;;;;;;;;;;;6.16;96.23;99332.59;10331008;23;19928;-79
2022/11/03 03:49:11;;;;;;;;;;;;;;;6.11;96.42;99323.94;10337116;22;19935;-79
2022/11/03 03:53:14;;;;;;;;;;;;;;;6.12;95.99;99323.97;10336186;23;20231;-79
2022/11/03 03:57:20;;;;;;;;;;;;;;;6.08;95.91;99311.88;10340601;23;19934;-79
2022/11/03 04:01:21;;;;;;;;;;;;;;;6.06;96.21;99314.44;10304242;22;20310;-80
2022/11/03 04:05:23;;;;;;;;;;;;;;;6.03;95.96;99311.81;10337052;23;19920;-79
2022/11/03 04:09:26;;;;;;;;;;;;;;;6.01;96.43;99307.50;10308167;23;19938;-79
2022/11/03 04:22:20;;;;;;;;;;;;;;;5.97;96.22;99285.97;10356900;22;19951;-79
2022/11/03 04:26:24;;;;;;;;;;;;;;;5.96;96.72;99273.94;10331657;23;19966;-79
2022/11/03 04:30:26;;;;;;;;;;;;;;;5.97;97.02;99274.81;10324435;22;19950;-79
2022/11/03 04:34:27;;;;;;;;;;;;;;;5.99;96.75;99275.69;10369852;22;19927;-79
2022/11/03 04:38:28;;;;;;;;;;;;;;;6.00;97.02;99280.00;10330941;22;20301;-79
2022/11/03 04:42:31;;;;;;;;;;;;;;;5.98;97.42;99276.53;10354346;22;19965;-79
2022/11/03 04:46:33;;;;;;;;;;;;;;;6.01;97.16;99274.84;10347332;22;19919;-79
2022/11/03 04:50:34;;;;;;;;;;;;;;;6.06;97.45;99267.16;10354159;22;19919;-79
2022/11/03 04:54:35;;;;;;;;;;;;;;;6.09;97.12;99248.28;10356024;22;19958;-79
2022/11/03 04:58:37;;;;;;;;;;;;;;;6.07;97.01;99238.84;10330988;22;19954;-79
2022/11/03 05:02:38;;;;;;;;;;;;;;;6.09;96.73;99231.13;10325354;22;19962;-79
2022/11/03 05:06:41;;;;;;;;;;;;;;;6.07;96.83;99225.09;10357079;22;20302;-79
2022/11/03 05:10:42;;;;;;;;;;;;;;;6.05;97.11;99227.66;10329612;22;19923;-79
2022/11/03 05:14:43;;;;;;;;;;;;;;;6.04;96.86;99223.34;10360076;22;19949;-79
2022/11/03 05:18:47;;;;;;;;;;;;;;;6.03;97.29;99219.03;10353519;22;19953;-79
2022/11/03 05:22:49;;;;;;;;;;;;;;;6.04;97.42;99209.59;10361345;22;19990;-79
2022/11/03 05:26:51;;;;;;;;;;;;;;;6.02;97.61;99203.56;10362904;22;19942;-79
2022/11/03 05:30:53;;;;;;;;;;;;;;;6.02;97.65;99198.41;10379883;22;20196;-79
2022/11/03 05:34:54;;;;;;;;;;;;;;;6.01;97.37;99189.81;10335087;22;20302;-79
2022/11/03 05:39:12;;;;;;;;;;;;;;;6.01;97.73;99178.63;10334764;22;19923;-79
2022/11/03 05:43:14;;;;;;;;;;;;;;;6.07;97.60;99174.41;10386777;22;19923;-79
2022/11/03 05:47:18;;;;;;;;;;;;;;;6.05;97.56;99167.50;10378856;22;20263;-79
2022/11/03 05:51:33;;;;;;;;;;;;;;;6.07;98.04;99161.50;10389393;22;20306;-79
2022/11/03 05:55:35;;;;;;;;;;;;;;;6.10;97.67;99159.81;10360041;22;19953;-79
2022/11/03 05:59:37;;;;;;;;;;;;;;;6.10;97.84;99157.22;10387469;22;20445;-79
2022/11/03 06:03:38;;;;;;;;;;;;;;;6.07;97.62;99150.34;10353139;22;19976;-79
2022/11/03 06:07:40;;;;;;;;;;;;;;;6.07;97.68;99153.78;10361044;22;19954;-79
2022/11/03 06:11:41;;;;;;;;;;;;;;;6.07;97.68;99152.91;10333162;22;19920;-79
2022/11/03 06:15:44;;;;;;;;;;;;;;;6.05;97.77;99142.59;10368017;22;19923;-79
2022/11/03 06:19:48;;;;;;;;;;;;;;;6.02;97.53;99142.56;10333467;22;19999;-79
2022/11/03 06:23:51;;;;;;;;;;;;;;;6.00;97.37;99135.69;10363015;22;19927;-79
2022/11/03 06:28:01;;;;;;;;;;;;;;;5.95;96.96;99122.75;10360035;22;20357;-79
2022/11/03 06:32:15;;;;;;;;;;;;;;;5.90;96.61;99114.09;10352736;22;19919;-79
2022/11/03 06:36:37;;;;;;;;;;;;;;;5.84;96.27;99102.84;10385404;22;19927;-78
2022/11/03 06:41:23;;;;;;;;;;;;;;;5.78;95.86;99101.09;10379453;22;19920;-79
2022/11/03 06:45:49;;;;;;;;;;;;;;;5.80;96.36;99103.66;10378882;22;19923;-80
2022/11/03 06:50:30;;;;;;;;;;;;;;;5.81;96.58;99101.09;10358027;22;19960;-79
2022/11/03 06:55:15;;;;;;;;;;;;;;;5.82;97.20;99081.38;10339069;22;19919;-79
2022/11/03 07:00:02;;;;;;;;;;;;;;;5.89;97.20;99081.41;10359127;22;19927;-79
2022/11/03 07:04:59;;;;;;;;;;;;;;;5.91;97.14;99079.75;10353625;22;19923;-79
2022/11/03 07:09:39;;;;;;;;;;;;;;;5.94;97.43;99078.94;10374951;22;19972;-78
2022/11/03 07:14:22;;;;;;;;;;;;;;;5.96;97.64;99064.34;10335940;22;19942;-78
2022/11/03 07:18:53;;;;;;;;;;;;;;;6.05;98.05;99067.00;10353285;22;19955;-79
2022/11/03 07:23:19;;;;;;;;;;;;;;;6.15;98.01;99066.22;10384453;22;20803;-79
2022/11/03 07:28:08;;;;;;;;;;;;;;;6.29;98.35;99071.50;10380584;22;19927;-78
2022/11/03 07:32:21;;;;;;;;;;;;;;;6.48;98.96;99068.19;10347200;22;19920;-79
2022/11/03 07:36:52;;;;;;;;;;;;;;;6.72;99.20;99069.19;10329717;22;19943;-79
2022/11/03 07:41:17;;;;;;;;;;;;;;;6.92;99.01;99072.75;10356000;22;19931;-79
2022/11/03 07:45:39;;;;;;;;;;;;;;;7.06;98.96;99071.09;10376479;22;20449;-79
2022/11/03 07:50:27;;;;;;;;;;;;;;;7.16;98.10;99079.72;10375192;22;19955;-79
2022/11/03 07:54:54;;;;;;;;;;;;;;;7.13;98.02;99090.91;10385365;22;19923;-79
2022/11/03 07:59:32;;;;;;;;;;;;;;;7.21;98.63;99091.81;10388777;22;20318;-80
2022/11/03 08:04:46;;;;;;;;;;;;;;;7.36;98.35;99091.03;10379452;22;19919;-79
2022/11/03 08:09:36;;;;;;;;;;;;;;;7.51;98.28;99065.22;10280186;23;19939;-79
2022/11/03 08:13:44;;;;;;;;;;;;;;;7.64;98.12;99044.56;10254328;23;20573;-80
2022/11/03 08:18:15;;;;;;;;;;;;;;;7.74;97.20;99028.25;10237142;23;19982;-80
2022/11/03 08:22:24;;;;;;;;;;;;;;;7.84;96.95;99032.53;10283839;23;19920;-80
2022/11/03 08:26:44;;;;;;;;;;;;;;;7.96;96.70;99027.38;10312190;22;19962;-80
2022/11/03 08:31:36;;;;;;;;;;;;;;;8.04;97.04;99022.19;10372598;22;19935;-80
2022/11/03 08:35:54;;;;;;;;;;;;;;;8.09;96.34;99033.44;10376341;22;20376;-80
2022/11/03 08:40:15;;;;;;;;;;;;;;;8.20;96.92;99016.16;10384719;22;19969;-80
2022/11/03 08:44:44;;;;;;;;;;;;;;;8.34;96.81;99008.41;10362770;22;19931;-80
2022/11/03 08:49:15;;;;;;;;;;;;;;;8.62;96.81;98991.97;10317183;22;19969;-81
2022/11/03 08:53:37;;;;;;;;;;;;;;;8.88;96.08;99003.97;10392685;22;20270;-81
2022/11/03 08:57:43;;;;;;;;;;;;;;;9.00;95.21;98981.47;10365483;22;20739;-79
2022/11/03 09:01:48;;;;;;;;;;;;;;;9.21;94.90;98951.16;10379489;22;19923;-81
2022/11/03 09:05:53;;;;;;;;;;;;;;;9.49;93.80;98968.22;10361229;22;19946;-79
2022/11/03 09:10:04;;;;;;;;;;;;;;;9.67;93.31;98955.13;10393239;22;19963;-80
2022/11/03 09:14:44;;;;;;;;;;;;;;;10.00;92.60;98963.50;10257070;23;19927;-83
2022/11/03 09:19:02;;;;;;;;;;;;;;;10.27;91.33;98942.53;10271966;23;20418;-81
2022/11/03 09:23:09;;;;;;;;;;;;;;;10.51;91.08;98927.53;10259356;23;19920;-81
2022/11/03 09:27:38;;;;;;;;;;;;;;;10.77;90.53;98906.44;10277854;23;19931;-80
2022/11/03 09:31:48;;;;;;;;;;;;;;;10.96;89.97;98902.75;10253431;23;19982;-81
2022/11/03 09:36:20;;;;;;;;;;;;;;;11.08;88.96;98906.88;10225356;23;19944;-81
2022/11/03 09:40:27;;;;;;;;;;;;;;;11.18;87.56;98891.16;10337958;23;19923;-82
2022/11/03 09:45:03;;;;;;;;;;;;;;;11.30;88.04;98879.69;10318158;23;19923;-81
2022/11/03 09:49:21;;;;;;;;;;;;;;;11.42;87.07;98865.66;10326532;23;19951;-81
2022/11/03 09:53:44;;;;;;;;;;;;;;;11.47;84.78;98851.69;10337808;23;19928;-81
2022/11/03 09:57:57;;;;;;;;;;;;;;;11.54;84.89;98836.00;10337836;23;19951;-81
2022/11/03 10:02:37;;;;;;;;;;;;;;;11.57;85.38;98836.81;10346579;23;19924;-82
2022/11/03 10:06:53;;;;;;;;;;;;;;;11.61;85.78;98840.19;10313102;23;19935;-81
2022/11/03 10:11:05;;;;;;;;;;;;;;;11.61;84.82;98832.41;10332942;23;20227;-81
2022/11/03 10:15:29;;;;;;;;;;;;;;;11.58;84.64;98827.25;10298392;23;20309;-81
2022/11/03 10:19:40;;;;;;;;;;;;;;;11.59;85.45;98810.78;10338691;23;19958;-82
2022/11/03 10:24:13;;;;;;;;;;;;;;;11.59;85.69;98826.38;10338736;23;19931;-81
2022/11/03 10:29:04;;;;;;;;;;;;;;;11.58;85.06;98817.72;10341115;23;19924;-81
2022/11/03 10:33:24;;;;;;;;;;;;;;;11.60;84.24;98796.88;10338849;23;19927;-83
2022/11/03 10:37:28;;;;;;;;;;;;;;;11.66;83.72;98792.41;10381159;22;19938;-83
2022/11/03 10:41:53;;;;;;;;;;;;;;;11.72;83.69;98776.72;10388774;22;19943;-82
2022/11/03 10:46:08;;;;;;;;;;;;;;;11.81;83.40;98765.31;10364741;22;20350;-81
2022/11/03 10:50:29;;;;;;;;;;;;;;;11.93;83.35;98744.25;10376468;22;20009;-82
2022/11/03 10:54:35;;;;;;;;;;;;;;;12.03;82.24;98742.34;10364361;22;20334;-81
2022/11/03 10:58:38;;;;;;;;;;;;;;;12.15;82.05;98739.47;10393917;22;19938;-82
2022/11/03 11:02:42;;;;;;;;;;;;;;;12.24;80.18;98731.47;10347055;22;20238;-80
2022/11/03 11:06:45;;;;;;;;;;;;;;;12.33;79.00;98727.78;10357714;22;19930;-80
2022/11/03 11:10:49;;;;;;;;;;;;;;;12.47;79.30;98706.66;10386955;22;19993;-81
2022/11/03 11:15:01;;;;;;;;;;;;;;;12.61;79.39;98695.03;10365609;22;19919;-81
2022/11/03 11:19:03;;;;;;;;;;;;;;;12.76;78.71;98677.34;10365157;22;19934;-81
2022/11/03 11:23:24;;;;;;;;;;;;;;;12.88;78.19;98677.00;10383561;22;20619;-80
2022/11/03 11:27:34;;;;;;;;;;;;;;;12.94;76.26;98666.44;10333952;22;19920;-80
2022/11/03 11:31:39;;;;;;;;;;;;;;;13.05;75.61;98671.38;10330302;22;20391;-80
2022/11/03 11:35:41;;;;;;;;;;;;;;;13.13;74.12;98675.50;10332761;23;19979;-81
2022/11/03 11:39:43;;;;;;;;;;;;;;;13.20;73.88;98664.03;10336070;23;19925;-80
2022/11/03 11:43:44;;;;;;;;;;;;;;;13.25;75.60;98656.94;10337768;23;19923;-80
2022/11/03 11:47:47;;;;;;;;;;;;;;;13.32;75.65;98635.94;10336506;23;19931;-80
2022/11/03 11:51:48;;;;;;;;;;;;;;;13.32;74.94;98622.91;10318582;23;19943;-81
2022/11/03 11:55:49;;;;;;;;;;;;;;;13.25;74.27;98598.72;10340080;23;20219;-80
2022/11/03 11:59:51;;;;;;;;;;;;;;;13.24;74.35;98602.22;10361597;22;19924;-81
2022/11/03 12:03:54;;;;;;;;;;;;;;;13.20;73.91;98585.84;10339077;23;19924;-80
2022/11/03 12:07:56;;;;;;;;;;;;;;;13.24;74.81;98587.44;10342121;22;20006;-81
2022/11/03 12:11:58;;;;;;;;;;;;;;;13.30;74.78;98571.66;10340819;22;19954;-82
2022/11/03 12:16:08;;;;;;;;;;;;;;;13.37;74.20;98546.25;10369911;22;19911;-82
2022/11/03 12:20:34;;;;;;;;;;;;;;;13.52;74.30;98529.28;10411167;22;19910;-81
2022/11/03 12:24:55;;;;;;;;;;;;;;;13.64;75.02;98507.19;10384247;22;19948;-81
2022/11/03 12:29:10;;;;;;;;;;;;;;;13.77;75.16;98496.31;10384330;22;19935;-81
2022/11/03 12:34:10;;;;;;;;;;;;;;;13.90;73.85;98479.38;10387030;22;19903;-81
2022/11/03 12:38:36;;;;;;;;;;;;;;;14.06;74.12;98473.66;10337159;22;19904;-81
2022/11/03 12:43:01;;;;;;;;;;;;;;;14.13;73.23;98462.09;10383705;22;19911;-80
2022/11/03 12:56:21;;;;;;;;;;;;;;;14.33;72.46;98428.31;10322193;22;19903;-81
2022/11/03 13:51:35;;;;;;;;;;;;;;;13.35;80.78;98432.47;10355125;22;19927;-80
2022/11/03 13:56:02;;;;;;;;;;;;;;;13.28;81.21;98419.63;10297511;23;20023;-79
2022/11/03 14:00:23;;;;;;;;;;;;;;;13.22;83.77;98426.78;10323117;22;19951;-79
2022/11/03 14:04:25;;;;;;;;;;;;;;;13.09;83.94;98418.44;10302881;23;19923;-80
2022/11/03 14:08:42;;;;;;;;;;;;;;;12.98;84.55;98421.38;10304857;23;19919;-79
2022/11/03 14:12:44;;;;;;;;;;;;;;;12.91;85.51;98409.41;10305254;23;19986;-79
2022/11/03 14:16:45;;;;;;;;;;;;;;;12.85;87.00;98404.38;10273161;22;19949;-79
2022/11/03 14:20:47;;;;;;;;;;;;;;;12.76;88.45;98385.59;10328388;23;19934;-79
2022/11/03 14:24:49;;;;;;;;;;;;;;;12.74;88.20;98376.94;10271537;23;19982;-78
2022/11/03 14:28:50;;;;;;;;;;;;;;;12.67;88.36;98361.50;10323770;23;19977;-78
2022/11/03 14:32:51;;;;;;;;;;;;;;;12.64;88.64;98350.31;10315766;22;19923;-78
2022/11/03 14:37:07;;;;;;;;;;;;;;;12.61;89.92;98335.66;10298944;23;19923;-78
2022/11/03 14:45:29;;;;;;;;;;;;;;;12.53;90.81;98321.13;10289754;22;19981;-78
2022/11/03 14:49:31;;;;;;;;;;;;;;;12.47;91.99;98321.31;10321048;23;19927;-78
2022/11/03 14:53:32;;;;;;;;;;;;;;;12.40;92.63;98318.91;10317416;22;20453;-78
2022/11/03 14:57:33;;;;;;;;;;;;;;;12.37;93.42;98315.50;10369750;22;20562;-78
2022/11/03 15:01:36;;;;;;;;;;;;;;;12.32;93.62;98307.84;10370869;22;19934;-78
2022/11/03 15:05:44;;;;;;;;;;;;;;;12.31;94.54;98303.53;10370622;22;20007;-78
2022/11/03 15:09:46;;;;;;;;;;;;;;;12.29;94.52;98301.88;10374441;22;20057;-80
2022/11/03 15:13:47;;;;;;;;;;;;;;;12.27;94.70;98306.28;10375767;22;19983;-80
2022/11/03 15:17:52;;;;;;;;;;;;;;;12.25;94.87;98297.66;10393056;22;20382;-81
2022/11/03 15:22:00;;;;;;;;;;;;;;;12.19;95.50;98290.88;10376587;22;19930;-81
2022/11/03 15:26:01;;;;;;;;;;;;;;;12.20;95.43;98282.16;10377292;22;20330;-81
2022/11/03 15:30:06;;;;;;;;;;;;;;;12.15;95.46;98268.44;10393795;22;20006;-82
2022/11/03 15:34:08;;;;;;;;;;;;;;;12.10;95.20;98260.75;10379785;22;19931;-81
2022/11/03 15:38:09;;;;;;;;;;;;;;;12.07;95.46;98245.25;10379895;22;19927;-81
2022/11/03 15:42:10;;;;;;;;;;;;;;;12.08;95.30;98231.34;10350106;22;19952;-80
2022/11/03 15:46:12;;;;;;;;;;;;;;;12.08;95.43;98240.91;10343640;22;19998;-81
2022/11/03 15:50:14;;;;;;;;;;;;;;;12.10;95.33;98232.16;10376567;22;19923;-80
2022/11/03 15:54:16;;;;;;;;;;;;;;;12.05;95.68;98199.38;10349414;22;19927;-80
2022/11/03 15:58:17;;;;;;;;;;;;;;;12.04;96.07;98200.25;10376887;22;19923;-80
2022/11/03 16:02:18;;;;;;;;;;;;;;;12.01;95.51;98192.53;10349152;22;19927;-80
2022/11/03 16:06:40;;;;;;;;;;;;;;;12.00;95.43;98180.41;10353839;22;19923;-79
2022/11/03 16:11:01;;;;;;;;;;;;;;;11.97;95.18;98170.09;10375314;22;20435;-80
2022/11/03 16:15:03;;;;;;;;;;;;;;;11.92;95.96;98154.63;10365435;22;19924;-79
2022/11/03 16:19:04;;;;;;;;;;;;;;;11.91;95.94;98145.13;10393774;22;19922;-79
2022/11/03 16:23:06;;;;;;;;;;;;;;;11.88;96.49;98121.81;10367858;22;19923;-78
2022/11/03 16:27:08;;;;;;;;;;;;;;;11.86;96.51;98115.81;10373933;22;19985;-77
2022/11/03 16:31:10;;;;;;;;;;;;;;;11.86;96.11;98117.56;10364306;22;20574;-78
2022/11/03 16:35:11;;;;;;;;;;;;;;;11.83;96.60;98102.88;10374473;22;19927;-79
2022/11/03 16:39:12;;;;;;;;;;;;;;;11.81;96.93;98104.69;10374107;22;19931;-79
2022/11/03 16:43:13;;;;;;;;;;;;;;;11.79;97.30;98093.47;10375570;22;19988;-78
2022/11/03 16:47:15;;;;;;;;;;;;;;;11.78;97.25;98084.81;10367773;22;19984;-79
2022/11/03 16:51:16;;;;;;;;;;;;;;;11.77;97.27;98092.63;10375666;22;20277;-79
2022/11/03 16:55:18;;;;;;;;;;;;;;;11.76;97.46;98075.34;10349807;22;19933;-79
2022/11/03 16:59:23;;;;;;;;;;;;;;;11.75;97.69;98087.50;10351067;22;20271;-80
2022/11/03 17:03:24;;;;;;;;;;;;;;;11.76;97.54;98075.34;10362985;22;19984;-79
2022/11/03 17:07:25;;;;;;;;;;;;;;;11.72;97.91;98061.59;10372377;22;19923;-78
2022/11/03 17:11:36;;;;;;;;;;;;;;;11.69;98.04;98061.69;10374354;22;20258;-77
2022/11/03 17:15:37;;;;;;;;;;;;;;;11.66;98.21;98055.69;10390225;22;19946;-77
2022/11/03 17:19:39;;;;;;;;;;;;;;;11.64;98.89;98047.09;10373458;22;20449;-77
2022/11/03 17:23:40;;;;;;;;;;;;;;;11.62;98.97;98033.28;10374219;22;19931;-81
2022/11/03 17:27:41;;;;;;;;;;;;;;;11.61;98.99;98035.03;10371978;22;19927;-77
2022/11/03 17:31:43;;;;;;;;;;;;;;;11.62;99.23;98028.09;10366555;22;19961;-78
2022/11/03 17:35:45;;;;;;;;;;;;;;;11.63;99.18;98020.25;10374544;22;19923;-79
2022/11/03 17:39:46;;;;;;;;;;;;;;;11.61;98.92;98024.66;10350666;22;20006;-78
2022/11/03 17:43:47;;;;;;;;;;;;;;;11.61;98.72;98029.00;10374245;22;20599;-78
2022/11/03 17:47:49;;;;;;;;;;;;;;;11.62;98.55;98036.75;10341081;22;20002;-78
2022/11/03 17:51:51;;;;;;;;;;;;;;;11.61;99.22;98035.03;10373985;22;19923;-78
2022/11/03 17:55:53;;;;;;;;;;;;;;;11.61;99.17;98029.84;10376538;22;19923;-80
2022/11/03 18:00:16;;;;;;;;;;;;;;;11.59;98.88;98042.03;10378201;22;19923;-80
2022/11/03 18:04:19;;;;;;;;;;;;;;;11.61;99.13;98036.78;10382771;22;20002;-79
2022/11/03 18:08:20;;;;;;;;;;;;;;;11.60;99.66;98029.91;10381979;22;19927;-79
2022/11/03 18:16:45;;;;;;;;;;;;;;;11.59;100.00;98004.78;10372180;22;19923;-78
2022/11/03 18:20:48;;;;;;;;;;;;;;;11.62;100.00;98002.09;10376032;22;19958;-79
2022/11/03 18:24:54;;;;;;;;;;;;;;;11.62;100.00;97994.28;10374636;22;19962;-78
2022/11/03 18:28:55;;;;;;;;;;;;;;;11.62;100.00;97996.91;10376843;22;19989;-78
2022/11/03 18:32:56;;;;;;;;;;;;;;;11.63;100.00;97985.59;10347059;22;19927;-79
2022/11/03 18:36:58;;;;;;;;;;;;;;;11.62;100.00;97989.09;10380731;22;19974;-79
2022/11/03 18:40:59;;;;;;;;;;;;;;;11.61;100.00;97974.41;10353432;22;20306;-78
2022/11/03 18:45:08;;;;;;;;;;;;;;;11.62;100.00;97979.56;10377669;22;19927;-78
2022/11/03 18:49:09;;;;;;;;;;;;;;;11.66;100.00;97949.94;10405674;22;19979;-78
2022/11/03 18:53:12;;;;;;;;;;;;;;;11.67;100.00;97954.28;10377587;22;19931;-79
2022/11/03 18:57:14;;;;;;;;;;;;;;;11.65;100.00;97973.41;10374741;22;20617;-78
2022/11/03 19:01:23;;;;;;;;;;;;;;;11.61;100.00;97985.66;10368033;22;19984;-77
2022/11/03 19:05:24;;;;;;;;;;;;;;;11.65;100.00;97976.84;10374371;22;19958;-79
2022/11/03 19:09:26;;;;;;;;;;;;;;;11.66;100.00;97970.75;10401189;22;20647;-79
2022/11/03 19:13:35;;;;;;;;;;;;;;;11.66;100.00;98004.53;10375361;22;19931;-79
2022/11/03 19:17:38;;;;;;;;;;;;;;;11.67;100.00;98018.41;10368257;22;19980;-79
2022/11/03 19:21:40;;;;;;;;;;;;;;;11.66;100.00;98033.16;10373355;22;20498;-78
2022/11/03 19:25:42;;;;;;;;;;;;;;;11.66;100.00;98022.75;10345761;22;19927;-79
2022/11/03 19:29:44;;;;;;;;;;;;;;;11.67;100.00;98016.69;10395078;22;19919;-79
2022/11/03 19:33:46;;;;;;;;;;;;;;;11.67;100.00;98031.41;10364212;22;19919;-79
2022/11/03 19:37:50;;;;;;;;;;;;;;;11.63;100.00;98017.66;10383405;22;19923;-82
2022/11/03 19:46:17;;;;;;;;;;;;;;;11.53;100.00;97963.41;10387164;22;19934;-80
2022/11/03 19:50:36;;;;;;;;;;;;;;;11.46;100.00;97980.91;10360510;22;19933;-81
2022/11/03 19:55:09;;;;;;;;;;;;;;;11.44;100.00;97969.72;10335905;22;20570;-82
2022/11/03 20:00:05;;;;;;;;;;;;;;;11.38;100.00;97967.31;10337502;22;19930;-80
2022/11/03 20:04:25;;;;;;;;;;;;;;;11.34;100.00;98002.94;10383714;22;19934;-80
2022/11/03 20:09:10;;;;;;;;;;;;;;;11.30;100.00;98010.84;10372498;22;19923;-80
2022/11/03 20:13:16;;;;;;;;;;;;;;;11.26;100.00;97999.72;10370063;22;19976;-78
2022/11/03 20:17:20;;;;;;;;;;;;;;;11.18;100.00;98051.91;10388425;22;19919;-80
2022/11/03 20:21:22;;;;;;;;;;;;;;;11.11;100.00;98044.31;10370497;22;19923;-77
2022/11/03 20:25:26;;;;;;;;;;;;;;;11.12;100.00;98052.06;10370707;22;20679;-77
2022/11/03 20:29:28;;;;;;;;;;;;;;;11.13;100.00;98060.69;10370034;22;19927;-77
2022/11/03 20:33:35;;;;;;;;;;;;;;;11.09;100.00;98091.13;10330901;22;19923;-77
2022/11/03 20:37:36;;;;;;;;;;;;;;;11.10;100.00;98053.00;10370089;22;19993;-78
2022/11/03 20:41:50;;;;;;;;;;;;;;;11.10;100.00;98053.00;10366926;22;19970;-78
2022/11/03 20:45:55;;;;;;;;;;;;;;;11.10;100.00;98053.00;10386902;22;19923;-80
2022/11/03 20:49:56;;;;;;;;;;;;;;;11.05;100.00;98065.28;10369282;22;20527;-79
2022/11/03 20:53:58;;;;;;;;;;;;;;;11.00;99.87;98086.19;10371721;22;20489;-79
2022/11/03 20:58:00;;;;;;;;;;;;;;;10.97;99.82;98095.81;10370761;22;20006;-81
2022/11/03 21:02:01;;;;;;;;;;;;;;;10.97;100.00;98129.56;10362267;22;19931;-78
2022/11/03 21:06:03;;;;;;;;;;;;;;;10.95;99.82;98139.13;10373086;22;19954;-79
2022/11/03 21:10:05;;;;;;;;;;;;;;;10.95;99.95;98144.31;10372660;22;20642;-79
2022/11/03 21:14:26;;;;;;;;;;;;;;;10.92;99.50;98145.25;10348106;22;19923;-76
2022/11/03 21:22:48;;;;;;;;;;;;;;;10.84;99.39;98129.88;10397397;22;19950;-77
2022/11/03 21:26:54;;;;;;;;;;;;;;;10.84;99.50;98126.44;10372058;22;19924;-79
2022/11/03 21:30:56;;;;;;;;;;;;;;;10.83;99.68;98130.78;10367507;22;20282;-80
2022/11/03 21:34:57;;;;;;;;;;;;;;;10.82;100.00;98131.66;10375744;22;19934;-78
2022/11/03 21:38:59;;;;;;;;;;;;;;;10.81;100.00;98158.53;10372561;22;19923;-80
2022/11/03 21:47:20;;;;;;;;;;;;;;;10.85;100.00;98186.13;10367384;22;19923;-78
2022/11/03 21:51:22;;;;;;;;;;;;;;;10.82;99.87;98175.81;10373054;22;20611;-78
2022/11/03 21:55:24;;;;;;;;;;;;;;;10.80;99.89;98175.00;10372538;22;20470;-77
2022/11/03 21:59:25;;;;;;;;;;;;;;;10.79;100.00;98167.25;10374385;22;20477;-79
2022/11/03 22:03:29;;;;;;;;;;;;;;;10.78;99.79;98175.94;10367073;22;20375;-79
2022/11/03 22:07:31;;;;;;;;;;;;;;;10.79;99.97;98178.50;10371407;22;19923;-77
2022/11/03 22:11:32;;;;;;;;;;;;;;;10.75;100.00;98197.59;10374028;22;19996;-78
2022/11/03 22:28:33;;;;;;;;;;;;;;;10.71;100.00;98226.28;10375674;22;19927;-78
2022/11/03 22:32:35;;;;;;;;;;;;;;;10.69;100.00;98241.91;10366488;22;20003;-78
2022/11/03 22:36:36;;;;;;;;;;;;;;;10.67;100.00;98241.09;10374995;22;20645;-79
2022/11/03 22:49:18;;;;;;;;;;;;;;;10.63;100.00;98277.53;10372579;22;20029;-78
2022/11/03 22:57:40;;;;;;;;;;;;;;;10.65;100.00;98286.16;10381061;22;19946;-80
2022/11/03 23:01:41;;;;;;;;;;;;;;;10.64;100.00;98289.63;10372050;22;19922;-79
2022/11/03 23:05:42;;;;;;;;;;;;;;;10.59;100.00;98300.09;10378400;22;19932;-78
2022/11/03 23:09:44;;;;;;;;;;;;;;;10.59;100.00;98287.13;10375934;22;19923;-80
2022/11/03 23:13:47;;;;;;;;;;;;;;;10.58;99.59;98290.59;10377214;22;19985;-79
2022/11/03 23:22:08;;;;;;;;;;;;;;;10.56;99.08;98297.56;10379381;22;19923;-78
2022/11/03 23:26:10;;;;;;;;;;;;;;;10.55;99.18;98308.84;10382517;22;19923;-79